sensor_id;sensor_type;location;lat;lon;timestamp;P1;durP1;ratioP1;P2;durP2;ratioP2
78430;SDS011;67727;50.236;22.452;2024-03-08T00:00:34;33.70;;;15.80;;
78430;SDS011;67727;50.236;22.452;2024-03-08T00:03:21;37.80;;;17.10;;
78430;SDS011;67727;50.236;22.452;2024-03-08T00:05:48;38.70;;;15.70;;
78430;SDS011;67727;50.236;22.452;2024-03-08T00:08:15;32.70;;;15.60;;
78430;SDS011;67727;50.236;22.452;2024-03-08T00:10:42;29.40;;;14.10;;
78430;SDS011;67727;50.236;22.452;2024-03-08T00:13:09;31.00;;;13.90;;
78430;SDS011;67727;50.236;22.452;2024-03-08T00:15:36;31.20;;;15.40;;
78430;SDS011;67727;50.236;22.452;2024-03-08T00:18:02;26.10;;;14.30;;
78430;SDS011;67727;50.236;22.452;2024-03-08T00:20:29;27.00;;;13.30;;
78430;SDS011;67727;50.236;22.452;2024-03-08T00:22:56;25.80;;;14.90;;
78430;SDS011;67727;50.236;22.452;2024-03-08T00:25:24;26.30;;;13.00;;
78430;SDS011;67727;50.236;22.452;2024-03-08T00:27:51;35.30;;;14.30;;
78430;SDS011;67727;50.236;22.452;2024-03-08T00:30:22;32.00;;;15.20;;
78430;SDS011;67727;50.236;22.452;2024-03-08T00:32:50;29.30;;;13.40;;
78430;SDS011;67727;50.236;22.452;2024-03-08T00:35:17;32.30;;;15.20;;
78430;SDS011;67727;50.236;22.452;2024-03-08T00:37:44;34.80;;;15.00;;
78430;SDS011;67727;50.236;22.452;2024-03-08T00:40:14;37.00;;;17.50;;
78430;SDS011;67727;50.236;22.452;2024-03-08T00:42:41;39.40;;;16.90;;
78430;SDS011;67727;50.236;22.452;2024-03-08T00:45:10;33.80;;;16.10;;
78430;SDS011;67727;50.236;22.452;2024-03-08T00:47:37;35.80;;;16.80;;
78430;SDS011;67727;50.236;22.452;2024-03-08T00:50:04;35.90;;;17.60;;
78430;SDS011;67727;50.236;22.452;2024-03-08T00:52:31;33.30;;;17.20;;
78430;SDS011;67727;50.236;22.452;2024-03-08T00:54:58;35.00;;;18.40;;
78430;SDS011;67727;50.236;22.452;2024-03-08T00:57:25;41.10;;;19.20;;
78430;SDS011;67727;50.236;22.452;2024-03-08T00:59:52;37.70;;;18.70;;
78430;SDS011;67727;50.236;22.452;2024-03-08T01:02:19;41.20;;;18.40;;
78430;SDS011;67727;50.236;22.452;2024-03-08T01:04:48;31.80;;;16.10;;
78430;SDS011;67727;50.236;22.452;2024-03-08T01:07:15;37.90;;;16.70;;
78430;SDS011;67727;50.236;22.452;2024-03-08T01:09:42;41.90;;;19.00;;
78430;SDS011;67727;50.236;22.452;2024-03-08T01:12:08;38.00;;;17.70;;
78430;SDS011;67727;50.236;22.452;2024-03-08T01:17:03;43.40;;;19.40;;
78430;SDS011;67727;50.236;22.452;2024-03-08T01:19:30;50.80;;;23.50;;
78430;SDS011;67727;50.236;22.452;2024-03-08T01:21:59;52.40;;;24.90;;
78430;SDS011;67727;50.236;22.452;2024-03-08T01:24:26;56.00;;;25.20;;
78430;SDS011;67727;50.236;22.452;2024-03-08T01:26:53;54.40;;;24.10;;
78430;SDS011;67727;50.236;22.452;2024-03-08T01:29:20;54.90;;;25.20;;
78430;SDS011;67727;50.236;22.452;2024-03-08T01:31:47;58.00;;;26.00;;
78430;SDS011;67727;50.236;22.452;2024-03-08T01:34:14;61.90;;;26.10;;
78430;SDS011;67727;50.236;22.452;2024-03-08T01:36:41;56.40;;;24.70;;
78430;SDS011;67727;50.236;22.452;2024-03-08T01:39:07;42.70;;;17.40;;
78430;SDS011;67727;50.236;22.452;2024-03-08T01:41:34;36.20;;;18.30;;
78430;SDS011;67727;50.236;22.452;2024-03-08T01:44:02;39.20;;;18.00;;
78430;SDS011;67727;50.236;22.452;2024-03-08T01:46:29;37.00;;;17.80;;
78430;SDS011;67727;50.236;22.452;2024-03-08T01:48:57;36.50;;;15.90;;
78430;SDS011;67727;50.236;22.452;2024-03-08T01:51:27;40.50;;;18.00;;
78430;SDS011;67727;50.236;22.452;2024-03-08T01:53:55;46.60;;;19.50;;
78430;SDS011;67727;50.236;22.452;2024-03-08T01:56:26;44.50;;;19.20;;
78430;SDS011;67727;50.236;22.452;2024-03-08T01:58:54;36.20;;;17.40;;
78430;SDS011;67727;50.236;22.452;2024-03-08T02:01:21;33.00;;;15.40;;
78430;SDS011;67727;50.236;22.452;2024-03-08T02:03:49;41.80;;;17.80;;
78430;SDS011;67727;50.236;22.452;2024-03-08T02:06:16;33.40;;;16.30;;
78430;SDS011;67727;50.236;22.452;2024-03-08T02:08:43;31.30;;;18.10;;
78430;SDS011;67727;50.236;22.452;2024-03-08T02:13:39;30.60;;;16.20;;
78430;SDS011;67727;50.236;22.452;2024-03-08T02:16:06;35.40;;;14.80;;
78430;SDS011;67727;50.236;22.452;2024-03-08T02:18:35;33.60;;;15.60;;
78430;SDS011;67727;50.236;22.452;2024-03-08T02:21:03;31.80;;;15.40;;
78430;SDS011;67727;50.236;22.452;2024-03-08T02:23:30;30.10;;;15.20;;
78430;SDS011;67727;50.236;22.452;2024-03-08T02:28:25;35.60;;;15.10;;
78430;SDS011;67727;50.236;22.452;2024-03-08T02:30:52;35.80;;;18.10;;
78430;SDS011;67727;50.236;22.452;2024-03-08T02:33:23;40.70;;;17.70;;
78430;SDS011;67727;50.236;22.452;2024-03-08T02:35:50;43.30;;;18.40;;
78430;SDS011;67727;50.236;22.452;2024-03-08T02:38:18;32.30;;;15.30;;
78430;SDS011;67727;50.236;22.452;2024-03-08T02:40:47;34.80;;;16.30;;
78430;SDS011;67727;50.236;22.452;2024-03-08T02:43:18;33.60;;;14.90;;
78430;SDS011;67727;50.236;22.452;2024-03-08T02:45:47;28.00;;;14.70;;
78430;SDS011;67727;50.236;22.452;2024-03-08T02:48:14;31.20;;;14.40;;
78430;SDS011;67727;50.236;22.452;2024-03-08T02:50:42;32.70;;;15.90;;
78430;SDS011;67727;50.236;22.452;2024-03-08T02:53:11;32.10;;;14.70;;
78430;SDS011;67727;50.236;22.452;2024-03-08T02:55:39;31.50;;;15.30;;
78430;SDS011;67727;50.236;22.452;2024-03-08T02:58:08;33.10;;;15.50;;
78430;SDS011;67727;50.236;22.452;2024-03-08T03:00:38;33.20;;;14.60;;
78430;SDS011;67727;50.236;22.452;2024-03-08T03:03:05;33.60;;;15.20;;
78430;SDS011;67727;50.236;22.452;2024-03-08T03:05:33;30.60;;;13.40;;
78430;SDS011;67727;50.236;22.452;2024-03-08T03:08:02;30.90;;;14.40;;
78430;SDS011;67727;50.236;22.452;2024-03-08T03:10:35;29.80;;;14.80;;
78430;SDS011;67727;50.236;22.452;2024-03-08T03:13:02;35.30;;;16.70;;
78430;SDS011;67727;50.236;22.452;2024-03-08T03:15:30;37.00;;;15.70;;
78430;SDS011;67727;50.236;22.452;2024-03-08T03:17:57;33.20;;;15.60;;
78430;SDS011;67727;50.236;22.452;2024-03-08T03:20:24;26.80;;;13.40;;
78430;SDS011;67727;50.236;22.452;2024-03-08T03:22:59;32.20;;;16.90;;
78430;SDS011;67727;50.236;22.452;2024-03-08T03:25:28;32.30;;;16.30;;
78430;SDS011;67727;50.236;22.452;2024-03-08T03:28:00;25.50;;;13.30;;
78430;SDS011;67727;50.236;22.452;2024-03-08T03:30:27;28.40;;;15.00;;
78430;SDS011;67727;50.236;22.452;2024-03-08T03:32:59;33.90;;;15.30;;
78430;SDS011;67727;50.236;22.452;2024-03-08T03:35:30;27.90;;;13.60;;
78430;SDS011;67727;50.236;22.452;2024-03-08T03:37:56;30.40;;;14.80;;
78430;SDS011;67727;50.236;22.452;2024-03-08T03:40:35;32.90;;;16.50;;
78430;SDS011;67727;50.236;22.452;2024-03-08T03:43:03;29.20;;;13.90;;
78430;SDS011;67727;50.236;22.452;2024-03-08T03:45:30;33.10;;;14.60;;
78430;SDS011;67727;50.236;22.452;2024-03-08T03:48:02;32.00;;;14.20;;
78430;SDS011;67727;50.236;22.452;2024-03-08T03:50:30;36.40;;;17.40;;
78430;SDS011;67727;50.236;22.452;2024-03-08T03:52:57;35.90;;;17.40;;
78430;SDS011;67727;50.236;22.452;2024-03-08T03:55:24;40.00;;;17.00;;
78430;SDS011;67727;50.236;22.452;2024-03-08T03:57:51;33.80;;;15.20;;
78430;SDS011;67727;50.236;22.452;2024-03-08T04:00:18;38.50;;;16.40;;
78430;SDS011;67727;50.236;22.452;2024-03-08T04:02:45;39.70;;;18.10;;
78430;SDS011;67727;50.236;22.452;2024-03-08T04:05:13;35.50;;;14.80;;
78430;SDS011;67727;50.236;22.452;2024-03-08T04:07:39;33.80;;;16.10;;
78430;SDS011;67727;50.236;22.452;2024-03-08T04:10:07;39.20;;;16.30;;
78430;SDS011;67727;50.236;22.452;2024-03-08T04:12:35;30.40;;;15.80;;
78430;SDS011;67727;50.236;22.452;2024-03-08T04:15:02;31.60;;;16.00;;
78430;SDS011;67727;50.236;22.452;2024-03-08T04:17:29;31.90;;;15.10;;
78430;SDS011;67727;50.236;22.452;2024-03-08T04:19:56;41.20;;;17.30;;
78430;SDS011;67727;50.236;22.452;2024-03-08T04:22:23;40.10;;;17.50;;
78430;SDS011;67727;50.236;22.452;2024-03-08T04:24:50;34.90;;;17.30;;
78430;SDS011;67727;50.236;22.452;2024-03-08T04:27:17;37.50;;;16.10;;
78430;SDS011;67727;50.236;22.452;2024-03-08T04:29:44;37.70;;;18.50;;
78430;SDS011;67727;50.236;22.452;2024-03-08T04:32:11;40.90;;;18.30;;
78430;SDS011;67727;50.236;22.452;2024-03-08T04:34:39;36.70;;;17.50;;
78430;SDS011;67727;50.236;22.452;2024-03-08T04:37:06;43.70;;;17.90;;
78430;SDS011;67727;50.236;22.452;2024-03-08T04:39:37;38.90;;;17.00;;
78430;SDS011;67727;50.236;22.452;2024-03-08T04:42:04;42.40;;;19.40;;
78430;SDS011;67727;50.236;22.452;2024-03-08T04:44:36;36.10;;;17.50;;
78430;SDS011;67727;50.236;22.452;2024-03-08T04:47:06;40.30;;;19.10;;
78430;SDS011;67727;50.236;22.452;2024-03-08T04:49:34;38.00;;;18.10;;
78430;SDS011;67727;50.236;22.452;2024-03-08T04:52:04;38.60;;;18.50;;
78430;SDS011;67727;50.236;22.452;2024-03-08T04:54:31;44.80;;;19.10;;
78430;SDS011;67727;50.236;22.452;2024-03-08T04:56:58;42.60;;;17.90;;
78430;SDS011;67727;50.236;22.452;2024-03-08T04:59:27;35.40;;;17.50;;
78430;SDS011;67727;50.236;22.452;2024-03-08T05:01:55;44.70;;;20.80;;
78430;SDS011;67727;50.236;22.452;2024-03-08T05:04:22;42.90;;;19.60;;
78430;SDS011;67727;50.236;22.452;2024-03-08T05:06:49;43.70;;;21.60;;
78430;SDS011;67727;50.236;22.452;2024-03-08T05:09:16;47.10;;;22.80;;
78430;SDS011;67727;50.236;22.452;2024-03-08T05:11:44;38.90;;;21.00;;
78430;SDS011;67727;50.236;22.452;2024-03-08T05:14:12;43.60;;;22.70;;
78430;SDS011;67727;50.236;22.452;2024-03-08T05:16:43;45.50;;;19.50;;
78430;SDS011;67727;50.236;22.452;2024-03-08T05:19:15;43.10;;;21.40;;
78430;SDS011;67727;50.236;22.452;2024-03-08T05:21:45;46.50;;;20.10;;
78430;SDS011;67727;50.236;22.452;2024-03-08T05:24:13;43.70;;;20.50;;
78430;SDS011;67727;50.236;22.452;2024-03-08T05:26:44;54.80;;;21.90;;
78430;SDS011;67727;50.236;22.452;2024-03-08T05:29:12;42.80;;;21.10;;
78430;SDS011;67727;50.236;22.452;2024-03-08T05:34:18;35.90;;;18.90;;
78430;SDS011;67727;50.236;22.452;2024-03-08T05:36:48;50.20;;;20.90;;
78430;SDS011;67727;50.236;22.452;2024-03-08T05:39:18;53.90;;;22.90;;
78430;SDS011;67727;50.236;22.452;2024-03-08T05:41:46;53.80;;;21.40;;
78430;SDS011;67727;50.236;22.452;2024-03-08T05:44:13;57.00;;;25.10;;
78430;SDS011;67727;50.236;22.452;2024-03-08T05:46:40;50.30;;;21.80;;
78430;SDS011;67727;50.236;22.452;2024-03-08T05:49:07;50.20;;;23.20;;
78430;SDS011;67727;50.236;22.452;2024-03-08T05:51:36;54.70;;;22.50;;
78430;SDS011;67727;50.236;22.452;2024-03-08T05:54:06;53.30;;;24.10;;
78430;SDS011;67727;50.236;22.452;2024-03-08T05:56:38;45.80;;;20.10;;
78430;SDS011;67727;50.236;22.452;2024-03-08T05:59:10;41.40;;;20.80;;
78430;SDS011;67727;50.236;22.452;2024-03-08T06:01:37;40.90;;;19.30;;
78430;SDS011;67727;50.236;22.452;2024-03-08T06:04:07;46.00;;;20.60;;
78430;SDS011;67727;50.236;22.452;2024-03-08T06:06:34;39.40;;;20.30;;
78430;SDS011;67727;50.236;22.452;2024-03-08T06:09:03;46.40;;;23.00;;
78430;SDS011;67727;50.236;22.452;2024-03-08T06:11:37;51.50;;;24.50;;
78430;SDS011;67727;50.236;22.452;2024-03-08T06:14:04;62.20;;;30.30;;
78430;SDS011;67727;50.236;22.452;2024-03-08T06:16:32;68.70;;;30.50;;
78430;SDS011;67727;50.236;22.452;2024-03-08T06:19:02;78.70;;;31.60;;
78430;SDS011;67727;50.236;22.452;2024-03-08T06:21:29;66.40;;;29.80;;
78430;SDS011;67727;50.236;22.452;2024-03-08T06:23:56;73.80;;;33.60;;
78430;SDS011;67727;50.236;22.452;2024-03-08T06:26:24;72.80;;;32.70;;
78430;SDS011;67727;50.236;22.452;2024-03-08T06:28:51;73.50;;;32.10;;
78430;SDS011;67727;50.236;22.452;2024-03-08T06:31:18;76.80;;;34.40;;
78430;SDS011;67727;50.236;22.452;2024-03-08T06:33:46;63.50;;;27.90;;
78430;SDS011;67727;50.236;22.452;2024-03-08T06:36:16;68.50;;;33.60;;
78430;SDS011;67727;50.236;22.452;2024-03-08T06:38:45;74.40;;;33.50;;
78430;SDS011;67727;50.236;22.452;2024-03-08T06:41:12;64.40;;;29.90;;
78430;SDS011;67727;50.236;22.452;2024-03-08T06:43:42;43.00;;;20.80;;
78430;SDS011;67727;50.236;22.452;2024-03-08T06:46:10;40.50;;;19.30;;
78430;SDS011;67727;50.236;22.452;2024-03-08T06:48:39;41.40;;;18.20;;
78430;SDS011;67727;50.236;22.452;2024-03-08T06:51:06;39.60;;;18.90;;
78430;SDS011;67727;50.236;22.452;2024-03-08T06:53:33;46.10;;;20.20;;
78430;SDS011;67727;50.236;22.452;2024-03-08T06:56:05;47.40;;;19.50;;
78430;SDS011;67727;50.236;22.452;2024-03-08T06:58:31;51.10;;;25.20;;
78430;SDS011;67727;50.236;22.452;2024-03-08T07:00:59;39.50;;;18.90;;
78430;SDS011;67727;50.236;22.452;2024-03-08T07:03:30;40.10;;;18.60;;
78430;SDS011;67727;50.236;22.452;2024-03-08T07:05:58;34.60;;;16.90;;
78430;SDS011;67727;50.236;22.452;2024-03-08T07:08:25;42.30;;;18.80;;
78430;SDS011;67727;50.236;22.452;2024-03-08T07:10:56;35.80;;;17.40;;
78430;SDS011;67727;50.236;22.452;2024-03-08T07:13:24;36.10;;;15.70;;
78430;SDS011;67727;50.236;22.452;2024-03-08T07:15:51;32.70;;;16.10;;
78430;SDS011;67727;50.236;22.452;2024-03-08T07:18:18;34.20;;;16.00;;
78430;SDS011;67727;50.236;22.452;2024-03-08T07:20:45;32.50;;;15.80;;
78430;SDS011;67727;50.236;22.452;2024-03-08T07:23:12;30.30;;;15.30;;
78430;SDS011;67727;50.236;22.452;2024-03-08T07:25:59;30.00;;;17.30;;
78430;SDS011;67727;50.236;22.452;2024-03-08T07:28:27;29.50;;;15.70;;
78430;SDS011;67727;50.236;22.452;2024-03-08T07:30:57;26.90;;;14.40;;
78430;SDS011;67727;50.236;22.452;2024-03-08T07:33:53;29.20;;;15.30;;
78430;SDS011;67727;50.236;22.452;2024-03-08T07:36:20;26.80;;;13.60;;
78430;SDS011;67727;50.236;22.452;2024-03-08T07:38:48;30.00;;;14.70;;
78430;SDS011;67727;50.236;22.452;2024-03-08T07:41:15;33.90;;;18.00;;
78430;SDS011;67727;50.236;22.452;2024-03-08T07:43:42;27.70;;;14.70;;
78430;SDS011;67727;50.236;22.452;2024-03-08T07:46:09;36.50;;;18.10;;
78430;SDS011;67727;50.236;22.452;2024-03-08T07:48:36;25.40;;;13.50;;
78430;SDS011;67727;50.236;22.452;2024-03-08T07:51:03;32.90;;;15.50;;
78430;SDS011;67727;50.236;22.452;2024-03-08T07:53:30;28.30;;;14.80;;
78430;SDS011;67727;50.236;22.452;2024-03-08T07:55:57;33.70;;;16.90;;
78430;SDS011;67727;50.236;22.452;2024-03-08T07:58:24;26.60;;;15.90;;
78430;SDS011;67727;50.236;22.452;2024-03-08T08:00:51;27.90;;;14.40;;
78430;SDS011;67727;50.236;22.452;2024-03-08T08:03:18;24.20;;;12.20;;
78430;SDS011;67727;50.236;22.452;2024-03-08T08:05:47;26.50;;;13.80;;
78430;SDS011;67727;50.236;22.452;2024-03-08T08:08:15;30.70;;;15.60;;
78430;SDS011;67727;50.236;22.452;2024-03-08T08:10:42;33.40;;;18.60;;
78430;SDS011;67727;50.236;22.452;2024-03-08T08:13:09;33.10;;;17.90;;
78430;SDS011;67727;50.236;22.452;2024-03-08T08:15:36;31.40;;;17.30;;
78430;SDS011;67727;50.236;22.452;2024-03-08T08:18:03;33.00;;;16.90;;
78430;SDS011;67727;50.236;22.452;2024-03-08T08:20:32;30.30;;;15.90;;
78430;SDS011;67727;50.236;22.452;2024-03-08T08:22:58;26.40;;;13.90;;
78430;SDS011;67727;50.236;22.452;2024-03-08T08:25:25;26.60;;;15.00;;
78430;SDS011;67727;50.236;22.452;2024-03-08T08:27:52;25.80;;;14.80;;
78430;SDS011;67727;50.236;22.452;2024-03-08T08:30:20;30.00;;;15.80;;
78430;SDS011;67727;50.236;22.452;2024-03-08T08:32:47;28.30;;;14.40;;
78430;SDS011;67727;50.236;22.452;2024-03-08T08:35:15;28.60;;;16.00;;
78430;SDS011;67727;50.236;22.452;2024-03-08T08:37:42;26.60;;;15.10;;
78430;SDS011;67727;50.236;22.452;2024-03-08T08:40:09;27.60;;;14.30;;
78430;SDS011;67727;50.236;22.452;2024-03-08T08:42:36;25.60;;;14.60;;
78430;SDS011;67727;50.236;22.452;2024-03-08T08:45:07;29.80;;;15.70;;
78430;SDS011;67727;50.236;22.452;2024-03-08T08:47:37;29.40;;;13.90;;
78430;SDS011;67727;50.236;22.452;2024-03-08T08:50:04;22.70;;;12.90;;
78430;SDS011;67727;50.236;22.452;2024-03-08T08:52:31;24.20;;;13.50;;
78430;SDS011;67727;50.236;22.452;2024-03-08T08:54:59;26.20;;;14.00;;
78430;SDS011;67727;50.236;22.452;2024-03-08T08:57:26;33.40;;;17.60;;
78430;SDS011;67727;50.236;22.452;2024-03-08T08:59:54;25.90;;;13.80;;
78430;SDS011;67727;50.236;22.452;2024-03-08T09:02:22;24.50;;;13.60;;
78430;SDS011;67727;50.236;22.452;2024-03-08T09:04:48;27.00;;;15.70;;
78430;SDS011;67727;50.236;22.452;2024-03-08T09:07:17;28.80;;;15.40;;
78430;SDS011;67727;50.236;22.452;2024-03-08T09:09:45;29.60;;;13.40;;
78430;SDS011;67727;50.236;22.452;2024-03-08T09:12:12;33.00;;;15.80;;
78430;SDS011;67727;50.236;22.452;2024-03-08T09:14:40;27.10;;;13.50;;
78430;SDS011;67727;50.236;22.452;2024-03-08T09:19:35;22.90;;;11.30;;
78430;SDS011;67727;50.236;22.452;2024-03-08T09:22:03;29.70;;;14.90;;
78430;SDS011;67727;50.236;22.452;2024-03-08T09:24:30;26.50;;;14.10;;
78430;SDS011;67727;50.236;22.452;2024-03-08T09:26:58;25.80;;;14.10;;
78430;SDS011;67727;50.236;22.452;2024-03-08T09:29:28;25.00;;;13.90;;
78430;SDS011;67727;50.236;22.452;2024-03-08T09:31:55;33.10;;;15.30;;
78430;SDS011;67727;50.236;22.452;2024-03-08T09:34:22;26.40;;;13.60;;
78430;SDS011;67727;50.236;22.452;2024-03-08T09:36:50;31.70;;;15.00;;
78430;SDS011;67727;50.236;22.452;2024-03-08T09:39:19;36.50;;;16.90;;
78430;SDS011;67727;50.236;22.452;2024-03-08T09:41:47;35.30;;;18.30;;
78430;SDS011;67727;50.236;22.452;2024-03-08T09:44:17;28.90;;;14.70;;
78430;SDS011;67727;50.236;22.452;2024-03-08T09:46:46;29.60;;;16.10;;
78430;SDS011;67727;50.236;22.452;2024-03-08T09:49:17;26.60;;;14.60;;
78430;SDS011;67727;50.236;22.452;2024-03-08T09:51:44;28.10;;;14.50;;
78430;SDS011;67727;50.236;22.452;2024-03-08T09:54:12;29.60;;;15.30;;
78430;SDS011;67727;50.236;22.452;2024-03-08T09:56:39;28.50;;;13.30;;
78430;SDS011;67727;50.236;22.452;2024-03-08T09:59:08;29.70;;;13.50;;
78430;SDS011;67727;50.236;22.452;2024-03-08T10:01:49;29.50;;;14.60;;
78430;SDS011;67727;50.236;22.452;2024-03-08T10:04:18;29.60;;;15.10;;
78430;SDS011;67727;50.236;22.452;2024-03-08T10:09:13;32.10;;;14.40;;
78430;SDS011;67727;50.236;22.452;2024-03-08T10:11:42;28.30;;;14.10;;
78430;SDS011;67727;50.236;22.452;2024-03-08T10:14:09;32.20;;;16.00;;
78430;SDS011;67727;50.236;22.452;2024-03-08T10:16:40;28.70;;;14.60;;
78430;SDS011;67727;50.236;22.452;2024-03-08T10:19:07;29.50;;;15.90;;
78430;SDS011;67727;50.236;22.452;2024-03-08T10:21:34;27.90;;;14.80;;
78430;SDS011;67727;50.236;22.452;2024-03-08T10:24:02;25.70;;;14.60;;
78430;SDS011;67727;50.236;22.452;2024-03-08T10:26:29;29.90;;;13.20;;
78430;SDS011;67727;50.236;22.452;2024-03-08T10:28:57;24.70;;;13.40;;
78430;SDS011;67727;50.236;22.452;2024-03-08T10:31:24;25.90;;;14.10;;
78430;SDS011;67727;50.236;22.452;2024-03-08T10:33:51;33.10;;;15.80;;
78430;SDS011;67727;50.236;22.452;2024-03-08T10:36:18;23.80;;;12.30;;
78430;SDS011;67727;50.236;22.452;2024-03-08T10:38:45;24.20;;;14.00;;
78430;SDS011;67727;50.236;22.452;2024-03-08T10:41:16;23.30;;;12.90;;
78430;SDS011;67727;50.236;22.452;2024-03-08T10:43:57;25.90;;;14.10;;
78430;SDS011;67727;50.236;22.452;2024-03-08T10:46:36;27.40;;;13.70;;
78430;SDS011;67727;50.236;22.452;2024-03-08T10:49:08;28.20;;;13.20;;
78430;SDS011;67727;50.236;22.452;2024-03-08T10:51:41;27.00;;;13.10;;
78430;SDS011;67727;50.236;22.452;2024-03-08T10:54:09;30.40;;;14.70;;
78430;SDS011;67727;50.236;22.452;2024-03-08T10:56:38;25.20;;;13.70;;
78430;SDS011;67727;50.236;22.452;2024-03-08T10:59:08;30.00;;;14.50;;
78430;SDS011;67727;50.236;22.452;2024-03-08T11:01:35;28.50;;;14.80;;
78430;SDS011;67727;50.236;22.452;2024-03-08T11:04:05;27.20;;;14.10;;
78430;SDS011;67727;50.236;22.452;2024-03-08T11:09:11;27.90;;;13.70;;
78430;SDS011;67727;50.236;22.452;2024-03-08T11:14:59;23.50;;;13.70;;
78430;SDS011;67727;50.236;22.452;2024-03-08T11:19:57;27.10;;;14.40;;
78430;SDS011;67727;50.236;22.452;2024-03-08T11:22:28;27.50;;;13.40;;
78430;SDS011;67727;50.236;22.452;2024-03-08T11:25:01;23.20;;;14.40;;
78430;SDS011;67727;50.236;22.452;2024-03-08T11:27:29;24.80;;;13.30;;
78430;SDS011;67727;50.236;22.452;2024-03-08T11:30:02;27.40;;;14.10;;
78430;SDS011;67727;50.236;22.452;2024-03-08T11:32:45;27.10;;;14.60;;
78430;SDS011;67727;50.236;22.452;2024-03-08T11:35:18;27.80;;;16.20;;
78430;SDS011;67727;50.236;22.452;2024-03-08T11:37:47;25.90;;;13.50;;
78430;SDS011;67727;50.236;22.452;2024-03-08T11:40:14;22.70;;;14.20;;
78430;SDS011;67727;50.236;22.452;2024-03-08T11:42:46;25.60;;;14.00;;
78430;SDS011;67727;50.236;22.452;2024-03-08T11:45:17;26.30;;;14.60;;
78430;SDS011;67727;50.236;22.452;2024-03-08T11:47:47;27.80;;;15.30;;
78430;SDS011;67727;50.236;22.452;2024-03-08T11:50:14;23.30;;;12.80;;
78430;SDS011;67727;50.236;22.452;2024-03-08T11:52:42;20.40;;;12.40;;
78430;SDS011;67727;50.236;22.452;2024-03-08T11:55:10;23.90;;;12.90;;
78430;SDS011;67727;50.236;22.452;2024-03-08T11:57:39;27.90;;;15.00;;
78430;SDS011;67727;50.236;22.452;2024-03-08T12:00:06;24.40;;;14.40;;
78430;SDS011;67727;50.236;22.452;2024-03-08T12:03:00;30.20;;;15.40;;
78430;SDS011;67727;50.236;22.452;2024-03-08T12:05:35;26.00;;;14.60;;
78430;SDS011;67727;50.236;22.452;2024-03-08T12:08:02;26.10;;;14.30;;
78430;SDS011;67727;50.236;22.452;2024-03-08T12:10:31;30.10;;;15.30;;
78430;SDS011;67727;50.236;22.452;2024-03-08T12:12:58;27.40;;;14.00;;
78430;SDS011;67727;50.236;22.452;2024-03-08T12:15:27;24.30;;;13.70;;
78430;SDS011;67727;50.236;22.452;2024-03-08T12:17:55;21.60;;;12.90;;
78430;SDS011;67727;50.236;22.452;2024-03-08T12:20:24;28.20;;;15.00;;
78430;SDS011;67727;50.236;22.452;2024-03-08T12:22:52;28.30;;;15.20;;
78430;SDS011;67727;50.236;22.452;2024-03-08T12:25:20;28.80;;;15.20;;
78430;SDS011;67727;50.236;22.452;2024-03-08T12:27:47;30.10;;;14.90;;
78430;SDS011;67727;50.236;22.452;2024-03-08T12:30:21;26.10;;;13.70;;
78430;SDS011;67727;50.236;22.452;2024-03-08T12:32:59;24.20;;;13.60;;
78430;SDS011;67727;50.236;22.452;2024-03-08T12:35:27;27.20;;;14.50;;
78430;SDS011;67727;50.236;22.452;2024-03-08T12:37:55;27.00;;;14.30;;
78430;SDS011;67727;50.236;22.452;2024-03-08T12:40:30;27.80;;;13.00;;
78430;SDS011;67727;50.236;22.452;2024-03-08T12:42:58;27.40;;;13.50;;
78430;SDS011;67727;50.236;22.452;2024-03-08T12:45:25;27.40;;;14.40;;
78430;SDS011;67727;50.236;22.452;2024-03-08T12:47:56;30.30;;;14.30;;
78430;SDS011;67727;50.236;22.452;2024-03-08T12:50:23;26.80;;;14.90;;
78430;SDS011;67727;50.236;22.452;2024-03-08T12:52:53;29.30;;;13.90;;
78430;SDS011;67727;50.236;22.452;2024-03-08T12:55:20;27.30;;;15.10;;
78430;SDS011;67727;50.236;22.452;2024-03-08T12:57:47;30.20;;;15.50;;
78430;SDS011;67727;50.236;22.452;2024-03-08T13:00:15;24.20;;;14.80;;
78430;SDS011;67727;50.236;22.452;2024-03-08T13:02:45;27.30;;;13.20;;
78430;SDS011;67727;50.236;22.452;2024-03-08T13:05:13;28.40;;;15.20;;
78430;SDS011;67727;50.236;22.452;2024-03-08T13:07:41;28.90;;;15.20;;
78430;SDS011;67727;50.236;22.452;2024-03-08T13:10:14;29.00;;;14.30;;
78430;SDS011;67727;50.236;22.452;2024-03-08T13:12:42;35.00;;;16.70;;
78430;SDS011;67727;50.236;22.452;2024-03-08T13:15:09;28.00;;;14.00;;
78430;SDS011;67727;50.236;22.452;2024-03-08T13:17:47;28.10;;;14.90;;
78430;SDS011;67727;50.236;22.452;2024-03-08T13:20:14;26.70;;;14.30;;
78430;SDS011;67727;50.236;22.452;2024-03-08T13:22:46;25.80;;;14.00;;
78430;SDS011;67727;50.236;22.452;2024-03-08T13:25:15;27.30;;;14.90;;
78430;SDS011;67727;50.236;22.452;2024-03-08T13:27:42;27.10;;;15.00;;
78430;SDS011;67727;50.236;22.452;2024-03-08T13:30:10;26.20;;;13.00;;
78430;SDS011;67727;50.236;22.452;2024-03-08T13:32:41;23.00;;;12.60;;
78430;SDS011;67727;50.236;22.452;2024-03-08T13:35:12;25.10;;;13.00;;
78430;SDS011;67727;50.236;22.452;2024-03-08T13:37:42;26.10;;;12.30;;
78430;SDS011;67727;50.236;22.452;2024-03-08T13:40:09;26.20;;;13.60;;
78430;SDS011;67727;50.236;22.452;2024-03-08T13:42:48;31.60;;;15.90;;
78430;SDS011;67727;50.236;22.452;2024-03-08T13:45:15;29.30;;;15.90;;
78430;SDS011;67727;50.236;22.452;2024-03-08T13:47:50;31.30;;;16.10;;
78430;SDS011;67727;50.236;22.452;2024-03-08T13:50:20;24.40;;;13.40;;
78430;SDS011;67727;50.236;22.452;2024-03-08T13:52:50;24.10;;;13.80;;
78430;SDS011;67727;50.236;22.452;2024-03-08T13:55:20;25.30;;;13.60;;
78430;SDS011;67727;50.236;22.452;2024-03-08T13:57:48;27.30;;;14.10;;
78430;SDS011;67727;50.236;22.452;2024-03-08T14:02:42;24.50;;;13.10;;
78430;SDS011;67727;50.236;22.452;2024-03-08T14:05:09;38.70;;;20.30;;
78430;SDS011;67727;50.236;22.452;2024-03-08T14:07:38;32.60;;;14.90;;
78430;SDS011;67727;50.236;22.452;2024-03-08T14:10:05;33.30;;;18.10;;
78430;SDS011;67727;50.236;22.452;2024-03-08T14:12:33;31.80;;;16.40;;
78430;SDS011;67727;50.236;22.452;2024-03-08T14:15:00;24.20;;;12.30;;
78430;SDS011;67727;50.236;22.452;2024-03-08T14:17:27;23.10;;;12.70;;
78430;SDS011;67727;50.236;22.452;2024-03-08T14:19:57;24.10;;;14.40;;
78430;SDS011;67727;50.236;22.452;2024-03-08T14:22:25;25.90;;;12.70;;
78430;SDS011;67727;50.236;22.452;2024-03-08T14:24:52;28.60;;;14.00;;
78430;SDS011;67727;50.236;22.452;2024-03-08T14:27:18;27.70;;;13.60;;
78430;SDS011;67727;50.236;22.452;2024-03-08T14:29:45;19.80;;;11.90;;
78430;SDS011;67727;50.236;22.452;2024-03-08T14:32:12;29.60;;;14.00;;
78430;SDS011;67727;50.236;22.452;2024-03-08T14:34:40;21.50;;;12.30;;
78430;SDS011;67727;50.236;22.452;2024-03-08T14:37:07;21.70;;;12.00;;
78430;SDS011;67727;50.236;22.452;2024-03-08T14:39:37;28.20;;;12.70;;
78430;SDS011;67727;50.236;22.452;2024-03-08T14:42:04;28.20;;;15.20;;